Weather reports worldwide

Advertisment
Zinnwald-Georgenfeld, Germany (10582): temperature & dewpoint: 17.11.2020 23:00:00 - 23.11.2020 23:00:00 (CET)Zinnwald-Georgenfeld, Germany (10582): temperature 5cm & temperature -5cm: 17.11.2020 23:00:00 - 23.11.2020 23:00:00 (CET)Zinnwald-Georgenfeld, Germany (10582): temperature -20cm & temperature -100cm: 17.11.2020 23:00:00 - 23.11.2020 23:00:00 (CET)Zinnwald-Georgenfeld, Germany (10582): wind speed & gusts: 17.11.2020 23:00:00 - 23.11.2020 23:00:00 (CET)Zinnwald-Georgenfeld, Germany (10582): wind direction: 17.11.2020 23:00:00 - 23.11.2020 23:00:00 (CET)Zinnwald-Georgenfeld, Germany (10582): visibility: 17.11.2020 23:00:00 - 23.11.2020 23:00:00 (CET)Zinnwald-Georgenfeld, Germany (10582): precipitation: 17.11.2020 23:00:00 - 23.11.2020 23:00:00 (CET)
Date & Time tt [°C] td [°C] tt 5cm [°C] tt -5cm [°C] tt -20cm [°C] tt -100cm [°C] ff [km/h] ff [kn] fx [km/h] fx [kn] dd vv [km] rr [mm]
23.11.2020 23:00:00 -0,4 -1,1 -1,5 1,1 3,4 6,8 17 9 25 14 WNW 31 0,0
23.11.2020 22:00:00 -0,5 -1,0 -1,5 1,2 3,5 6,8 16 9 24 13 W 19 0,0
23.11.2020 21:00:00 -0,4 -0,6 -1,2 1,3 3,6 6,8 16 9 25 14 W 8 0,0
23.11.2020 20:00:00 -0,1 -0,4 -0,8 1,7 3,6 6,9 16 8 28 15 W 6 0,0
23.11.2020 19:00:00 0,5 0,1 0,2 2,1 3,7 6,9 13 7 28 15 WNW 10 0,0
23.11.2020 18:00:00 0,7 0,4 0,6 2,2 3,8 6,9 16 8 26 14 WNW 9 0,0
23.11.2020 17:00:00 0,7 0,5 0,6 2,4 3,8 6,9 13 7 24 13 WNW 11 0,0
23.11.2020 16:00:00 1,1 0,2 0,3 3,2 3,7 6,9 15 8 27 15 WNW 31 0,0
23.11.2020 15:00:00 1,6 0,8 1,5 3,5 3,7 6,9 17 9 37 20 WNW 23 0,0
23.11.2020 14:00:00 1,3 0,6 1,5 3,4 3,7 6,9 16 9 35 19 WNW 19 0,0
23.11.2020 13:00:00 1,5 0,6 1,6 3,7 3,6 6,9 19 10 32 17 NW 28 0,0
23.11.2020 12:00:00 1,7 0,7 2,1 3,4 3,6 6,9 18 10 36 19 NW 21 0,0
23.11.2020 11:00:00 1,5 1,1 1,5 3,3 3,6 6,9 18 10 34 19 NW 12 0,0
23.11.2020 10:00:00 1,6 1,2 1,9 3,0 3,6 6,9 19 10 36 19 WNW 10 0,1
23.11.2020 09:00:00 2,0 1,7 1,9 2,9 3,6 6,9 18 10 42 23 WNW 13 0,3
23.11.2020 08:00:00 2,3 2,2 2,3 3,0 3,5 7,0 15 8 39 21 WNW 5 0,3
23.11.2020 07:00:00 2,8 2,8 2,8 3,1 3,5 7,0 16 8 27 15 WNW 0,3 0,5
23.11.2020 06:00:00 3,0 3,0 2,9 3,1 3,5 7,0 15 8 32 17 WNW 0,1 0,0
23.11.2020 05:00:00 3,1 3,1 3,0 3,1 3,5 7,0 17 9 30 16 W 0,1 0,2
23.11.2020 04:00:00 3,1 3,1 3,0 3,1 3,4 7,0 15 8 29 15 W 0,2 0,0
23.11.2020 03:00:00 3,3 3,3 3,2 3,1 3,4 7,0 16 9 29 16 W 0,1 0,1
23.11.2020 02:00:00 3,6 3,6 3,4 3,1 3,3 7,0 16 9 26 14 WSW 0,8 0,2
23.11.2020 01:00:00 3,4 3,4 3,2 3,0 3,3 7,0 16 9 24 13 SW 2,5 0,0
23.11.2020 00:00:00 3,3 3,3 3,2 3,0 3,2 7,0 13 7 21 12 WSW 0,1 0,0
22.11.2020 23:00:00 3,2 3,2 3,1 3,0 3,2 7,0 10 5 19 10 W 0,1 0,0
22.11.2020 22:00:00 3,2 3,2 3,1 2,9 3,1 7,1 12 6 20 11 WSW 0,1 0,0
22.11.2020 21:00:00 3,3 3,3 3,1 2,9 3,1 7,1 10 5 22 12 WSW 0,1 0,1
22.11.2020 20:00:00 3,3 3,3 3,2 2,9 3,0 7,1 11 6 22 12 W 0,2 0,1
22.11.2020 19:00:00 3,4 3,4 3,2 2,9 2,9 7,1 11 6 21 12 W 0,2 0,4
22.11.2020 18:00:00 3,4 3,4 3,2 2,8 2,8 7,1 11 6 21 11 W 0,7 0,6
22.11.2020 17:00:00 3,5 3,5 3,3 2,9 2,7 7,1 10 5 27 14 W 0,6 0,5
22.11.2020 16:00:00 3,6 3,6 3,5 2,9 2,6 7,1 14 7 31 17 WNW 0,1 0,1
22.11.2020 15:00:00 3,7 3,7 3,6 2,8 2,5 7,1 15 8 34 18 W 0,4 0,5
22.11.2020 14:00:00 4,0 3,8 3,9 2,4 2,4 7,1 17 9 36 20 W 1,9 0,0
22.11.2020 13:00:00 3,9 2,7 3,8 1,6 2,3 7,1 22 12 49 26 W 37 0,0
22.11.2020 12:00:00 4,2 2,2 4,4 0,5 2,4 7,2 27 15 47 25 W 75 0,0
22.11.2020 11:00:00 3,0 1,2 2,6 0,5 2,4 7,2 25 13 50 27 W 75 0,0
22.11.2020 10:00:00 2,3 1,1 1,9 0,5 2,4 7,2 30 16 47 25 W 29 0,0
22.11.2020 09:00:00 1,7 0,7 1,1 0,5 2,4 7,2 25 14 43 23 W 59 0,0
22.11.2020 08:00:00 1,2 0,8 0,8 0,5 2,4 7,2 29 15 42 23 WSW 7 0,0
22.11.2020 07:00:00 0,5 0,4 0,3 0,5 2,4 7,2 20 11 33 18 SW 4,4 0,0
22.11.2020 06:00:00 0,7 0,0 0,5 0,5 2,4 7,2 24 13 39 21 WSW 12 0,0
22.11.2020 05:00:00 0,6 -1,3 0,3 0,5 2,4 7,2 25 13 38 20 WSW 31 0,0
22.11.2020 04:00:00 0,6 -1,2 0,4 0,5 2,5 7,2 23 12 39 21 WSW 75 0,0
22.11.2020 03:00:00 0,2 -4,2 -0,3 0,5 2,5 7,2 25 13 44 24 WSW 75 0,0
22.11.2020 02:00:00 0,4 -5,8 -0,3 0,5 2,5 7,3 25 13 44 24 WSW 75 0,0
22.11.2020 01:00:00 0,2 -8,3 -1,8 0,5 2,5 7,3 21 11 32 17 WSW 75 0,0
22.11.2020 00:00:00 0,5 -9,3 -0,2 0,5 2,5 7,3 21 12 33 18 WSW 75 0,0
21.11.2020 23:00:00 0,0 -9,3 -2,1 0,5 2,5 7,3 25 14 32 18 WSW 75 0,0
21.11.2020 22:00:00 -2,9 -6,0 -4,7 0,5 2,6 7,3 19 10 27 15 SSW 55 0,0
21.11.2020 21:00:00 -2,9 -4,3 -4,0 0,6 2,6 7,3 22 12 28 15 SSW 29 0,0
21.11.2020 20:00:00 -3,0 -4,0 -4,0 0,6 2,6 7,3 22 12 34 18 S 29 0,0
21.11.2020 19:00:00 -2,6 -3,8 -3,3 0,6 2,6 7,3 24 13 31 17 S 30 0,0
21.11.2020 18:00:00 -2,3 -3,6 -3,0 0,6 2,6 7,3 22 12 32 17 S 35 0,0
21.11.2020 17:00:00 -2,6 -3,6 -3,6 0,6 2,7 7,3 24 13 33 18 SSW 30 0,0
21.11.2020 16:00:00 -2,0 -2,9 -2,9 0,6 2,7 7,3 29 16 42 23 SSW 15 0,0
21.11.2020 15:00:00 -1,5 -3,2 -2,1 0,6 2,7 7,3 33 18 47 26 SSW 34 0,0
21.11.2020 14:00:00 -1,5 -2,8 -1,7 0,6 2,7 7,3 34 18 44 24 SSW 21 0,0
21.11.2020 13:00:00 -1,3 -2,7 -1,3 0,6 2,7 7,4 31 17 44 24 SSW 19 0,0
21.11.2020 12:00:00 -0,4 -2,8 0,2 0,6 2,8 7,4 27 14 37 20 SSW 49 0,0
21.11.2020 11:00:00 0,2 -2,8 1,0 0,6 2,8 7,4 19 10 29 16 SSW 48 0,0
21.11.2020 10:00:00 -0,9 -3,5 -1,0 0,6 2,8 7,4 23 12 29 15 SSW 58 0,0
21.11.2020 09:00:00 -1,5 -3,8 -1,5 0,6 2,9 7,4 18 10 23 12 SSW 75 0,0
21.11.2020 08:00:00 -3,6 -5,0 -4,6 0,6 2,9 7,4 18 10 24 13 SSW 63 0,0
21.11.2020 07:00:00 -3,5 -4,7 -5,2 0,7 2,9 7,4 18 10 24 13 SW 59 0,0
21.11.2020 06:00:00 -3,8 -4,6 -5,9 0,7 3,0 7,4 15 8 19 11 WSW 53 0,0
21.11.2020 05:00:00 -3,5 -4,5 -5,9 0,7 3,0 7,4 12 7 22 12 W 51 0,0
21.11.2020 04:00:00 -3,0 -4,1 -4,2 0,8 3,0 7,4 16 9 24 13 WSW 42 0,0
21.11.2020 03:00:00 -2,4 -2,9 -2,8 0,8 3,1 7,4 13 7 18 10 WSW 15 0,0
21.11.2020 02:00:00 -2,4 -2,8 -2,9 0,8 3,1 7,4 9 5 21 12 W 22 0,0
21.11.2020 01:00:00 -2,4 -3,2 -2,7 0,9 3,2 7,4 13 7 23 12 WNW 20 0,0
21.11.2020 00:00:00 -2,4 -3,3 -3,6 0,9 3,2 7,4 11 6 24 13 NW 27 0,0
20.11.2020 23:00:00 -2,2 -3,0 -2,8 1,0 3,2 7,4 13 7 25 13 NW 19 0,0
20.11.2020 22:00:00 -2,1 -2,9 -2,2 1,0 3,3 7,4 14 8 27 14 NW 21 0,0
20.11.2020 21:00:00 -1,8 -2,3 -2,0 1,1 3,3 7,4 15 8 32 17 NW 16 0,0
20.11.2020 20:00:00 -1,4 -1,9 -1,4 1,1 3,4 7,5 19 10 35 19 NNW 13 0,0
20.11.2020 19:00:00 -1,3 -1,8 -1,5 1,1 3,4 7,5 22 12 41 22 NNW 18 0,0
20.11.2020 18:00:00 -1,3 -1,9 -1,3 1,1 3,4 7,5 21 11 39 21 NNW 19 0,0
20.11.2020 17:00:00 -1,3 -1,8 -1,3 1,2 3,5 7,5 17 9 31 17 NNW 10 0,2
20.11.2020 16:00:00 -1,1 -1,6 -1,2 1,3 3,5 7,5 18 10 42 23 NW 4,8 0,1
20.11.2020 15:00:00 -1,0 -1,5 -1,0 1,6 3,5 7,5 18 10 37 20 NW 2,7 1,0
20.11.2020 14:00:00 -0,9 -1,6 -0,6 2,0 3,5 7,5 23 12 41 22 WNW 14 0,0
20.11.2020 13:00:00 -0,9 -1,4 -0,3 1,7 3,5 7,5 21 11 40 21 WNW 16 0,0
20.11.2020 12:00:00 -1,0 -1,3 -0,5 1,3 3,6 7,5 21 11 36 19 WNW 12 0,0
20.11.2020 11:00:00 -1,3 -1,5 -1,0 1,1 3,6 7,5 15 8 37 20 WNW 0,3 0,0
20.11.2020 10:00:00 -1,4 -1,7 -1,1 1,1 3,7 7,5 20 11 40 22 WNW 3,9 0,0
20.11.2020 09:00:00 -1,5 -1,6 -1,2 1,1 3,8 7,5 18 10 38 21 WNW 0,2 0,0
20.11.2020 08:00:00 -1,5 -1,6 -1,3 1,1 3,9 7,5 18 10 34 18 NW 0,3 0,0
20.11.2020 07:00:00 -1,5 -1,8 -1,4 1,1 4,0 7,5 19 10 38 21 NW 0,9 0,0
20.11.2020 06:00:00 -1,3 -1,8 -1,4 1,2 4,1 7,5 22 12 44 24 NW 3,8 0,0
20.11.2020 05:00:00 -1,1 -1,7 -1,3 1,3 4,2 7,5 21 12 45 24 NW 4,2 0,0
20.11.2020 04:00:00 -0,8 -1,4 -0,9 1,4 4,3 7,5 23 12 47 26 NNW 9 0,0
20.11.2020 03:00:00 -0,7 -1,1 -0,8 1,5 4,4 7,5 21 12 41 22 NW 1,0 0,0
20.11.2020 02:00:00 -0,4 -1,0 -0,5 1,8 4,5 7,5 23 12 47 26 NW 15 0,0
20.11.2020 01:00:00 0,1 -0,3 -0,1 2,1 4,6 7,5 24 13 42 23 NW 10 0,0
20.11.2020 00:00:00 0,5 -0,1 0,3 2,1 4,7 7,5 22 12 48 26 NNW 23 0,1
19.11.2020 23:00:00 1,0 0,4 0,7 2,3 4,7 7,5 28 15 49 26 NNW 17 0,3
19.11.2020 22:00:00 0,9 0,4 0,6 2,8 4,8 7,5 28 15 52 28 NNW 15 1,0
19.11.2020 21:00:00 2,7 2,1 2,4 3,1 4,9 7,5 24 13 47 25 NW 12 0,0
19.11.2020 20:00:00 3,0 1,5 2,5 2,9 5,0 7,5 23 12 47 26 WNW 63 0,0
19.11.2020 19:00:00 2,9 1,3 2,2 2,9 5,1 7,5 25 13 51 27 WNW 23 0,0
19.11.2020 18:00:00 2,8 0,8 1,7 3,2 5,1 7,5 30 16 50 27 WNW 47 0,0
19.11.2020 17:00:00 2,6 0,7 1,4 3,9 5,1 7,5 22 12 45 25 WNW 57 0,1
19.11.2020 16:00:00 3,2 0,9 2,7 4,7 5,0 7,5 22 12 46 25 W 66 0,0
19.11.2020 15:00:00 4,8 2,4 4,1 5,1 4,9 7,5 18 10 46 25 W 75 0,0
19.11.2020 14:00:00 4,9 3,8 4,7 5,1 4,8 7,5 22 12 50 27 W 75 0,0
19.11.2020 13:00:00 5,5 5,3 5,4 5,0 4,8 7,5 29 16 51 28 W 14 0,4
19.11.2020 12:00:00 6,4 6,4 6,3 4,5 4,7 7,5 18 10 37 20 W 1,6 0,5
19.11.2020 11:00:00 3,2 3,2 3,4 4,0 4,7 7,5 15 8 20 11 S 0,1 0,0
19.11.2020 10:00:00 3,1 3,1 3,3 3,8 4,7 7,5 16 8 24 13 S 0,1 0,0
19.11.2020 09:00:00 3,6 3,6 4,3 2,9 4,7 7,5 13 7 31 17 S 0,5 0,0
19.11.2020 08:00:00 2,2 2,2 1,8 2,4 4,8 7,5 27 15 35 19 S 0,2 0,0
19.11.2020 07:00:00 2,3 2,3 1,9 2,3 4,9 7,5 27 14 34 18 S 0,2 0,0
19.11.2020 06:00:00 2,1 2,0 1,6 2,4 5,0 7,5 19 11 33 18 S 0,1 0,0
19.11.2020 05:00:00 2,4 2,4 2,0 2,6 5,1 7,5 27 15 34 19 S 0,1 0,0
19.11.2020 04:00:00 2,6 2,4 1,7 2,7 5,2 7,5 26 14 39 21 S 2,7 0,0
19.11.2020 03:00:00 3,2 2,9 2,2 3,0 5,3 7,5 31 17 45 25 S 4,5 0,0
19.11.2020 02:00:00 3,9 3,5 3,0 3,1 5,4 7,5 33 18 43 23 S 11 0,0
19.11.2020 01:00:00 4,0 3,8 3,1 3,2 5,5 7,5 29 16 40 22 S 11 0,0
19.11.2020 00:00:00 3,8 3,6 2,7 3,2 5,6 7,5 26 14 40 21 S 4,3 0,0
18.11.2020 23:00:00 3,9 3,6 2,7 3,4 5,8 7,5 26 14 35 19 S 13 0,0
18.11.2020 22:00:00 4,1 3,7 3,0 3,6 5,9 7,5 24 13 34 19 S 15 0,0
18.11.2020 21:00:00 4,3 3,8 3,1 3,8 6,0 7,5 26 14 37 20 S 22 0,0
18.11.2020 20:00:00 4,6 3,9 3,3 4,1 6,1 7,5 28 15 37 20 S 27 0,0
18.11.2020 19:00:00 4,7 4,1 3,5 4,5 6,2 7,5 31 17 36 19 S 23 0,0
18.11.2020 18:00:00 5,1 4,1 3,8 4,9 6,3 7,5 29 16 38 21 S 36 0,0
18.11.2020 17:00:00 5,4 4,4 4,1 5,5 6,3 7,5 30 16 38 21 S 34 0,0
18.11.2020 16:00:00 5,8 4,6 4,7 6,4 6,2 7,5 29 16 37 20 S 26 0,0
18.11.2020 15:00:00 6,2 5,1 5,5 7,1 6,1 7,5 23 12 37 20 S 26 0,0
18.11.2020 14:00:00 7,0 5,1 6,5 7,7 6,0 7,5 30 16 38 21 S 33 0,0
18.11.2020 13:00:00 6,6 6,2 7,4 7,5 5,9 7,5 21 11 29 16 S 16 0,0
18.11.2020 12:00:00 5,7 5,7 6,7 6,9 5,8 7,5 20 11 32 17 S 0,1 0,0
18.11.2020 11:00:00 5,2 5,2 5,9 6,3 5,8 7,5 25 14 35 19 SSW 0,1 0,0
18.11.2020 10:00:00 5,0 4,9 5,4 5,6 5,8 7,5 24 13 32 17 SSW 2,8 0,0
18.11.2020 09:00:00 4,7 4,1 4,8 5,2 5,8 7,5 19 10 26 14 SW 63 0,0
18.11.2020 08:00:00 4,6 4,2 4,4 5,2 5,8 7,5 13 7 22 12 SW 54 0,0
18.11.2020 07:00:00 4,8 4,4 4,6 5,3 5,8 7,5 15 8 23 12 SW 48 0,0
18.11.2020 06:00:00 5,2 5,2 5,0 5,4 5,8 7,5 9 5 18 10 SW 6 0,1
18.11.2020 05:00:00 5,2 5,2 5,1 5,4 5,8 7,5 9 5 19 10 SW 0,8 0,0
18.11.2020 04:00:00 5,2 5,2 5,1 5,4 5,8 7,5 12 6 19 11 SW 2,2 0,0
18.11.2020 03:00:00 5,2 5,2 5,1 5,4 5,8 7,5 14 8 26 14 SW 1,8 0,0
18.11.2020 02:00:00 5,3 5,2 5,0 5,5 5,8 7,5 21 11 31 17 W 4,6 0,0
18.11.2020 01:00:00 5,4 5,2 5,2 5,5 5,8 7,5 16 8 26 14 WSW 6 0,0
18.11.2020 00:00:00 5,6 5,3 5,4 5,5 5,8 7,5 13 7 27 15 W 5 0,0
17.11.2020 23:00:00 5,7 5,3 5,1 5,6 5,8 7,5 18 10 31 17 W 21 0,0

tt = temperature
td = dewpoint
tt 5cm = temperature 5cm
tt -5cm = temperature -5cm
tt -20cm = temperature -20cm
tt -100cm = temperature -100cm
ff = wind speed
fx = gusts
dd = wind direction
vv = visibility
rr = precipitation

Next stations